Time;durP1;ratioP1;P1;durP2;ratioP2;P2;SDS_P1;SDS_P2;PMS_P1;PMS_P2;Temp;Humidity;BMP_temperature;BMP_pressure;BME280_temperature;BME280_humidity;BME280_pressure;Samples;Min_cycle;Max_cycle;Signal;HPM_P1;HPM_P2
2023/01/21 00:02:13;;;;;;;13.30;6.20;;;2.40;99.90;;;;;;4899954;28;20033;-89
2023/01/21 00:04:39;;;;;;;14.48;6.65;;;2.30;99.90;;;;;;4898997;28;20085;-89
2023/01/21 00:07:06;;;;;;;13.60;6.30;;;2.30;99.90;;;;;;4913081;28;20484;-89
2023/01/21 00:09:32;;;;;;;15.20;7.00;;;2.30;99.90;;;;;;4903037;28;20676;-89
2023/01/21 00:12:01;;;;;;;14.07;6.32;;;2.30;99.90;;;;;;4927235;28;20038;-89
2023/01/21 00:14:28;;;;;;;13.25;6.25;;;2.30;99.90;;;;;;4933929;28;20033;-89
2023/01/21 00:16:54;;;;;;;13.90;6.53;;;2.30;99.90;;;;;;4910487;28;20207;-89
2023/01/21 00:19:20;;;;;;;13.15;6.28;;;2.30;99.90;;;;;;4911989;28;20063;-89
2023/01/21 00:21:46;;;;;;;15.50;6.20;;;2.20;99.90;;;;;;4927350;28;20035;-89
2023/01/21 00:24:11;;;;;;;14.73;6.87;;;2.20;99.90;;;;;;4933886;28;20248;-89
2023/01/21 00:26:37;;;;;;;15.40;7.18;;;2.20;99.90;;;;;;4893844;28;20030;-89
2023/01/21 00:29:03;;;;;;;16.97;7.80;;;2.20;99.90;;;;;;4916192;28;20121;-89
2023/01/21 00:31:28;;;;;;;18.20;7.35;;;2.30;99.90;;;;;;4917386;28;20030;-89
2023/01/21 00:33:54;;;;;;;17.73;7.50;;;2.30;99.90;;;;;;4888872;28;20146;-89
2023/01/21 00:36:21;;;;;;;14.20;6.55;;;2.30;99.90;;;;;;4936628;28;20022;-88
2023/01/21 00:38:50;;;;;;;14.67;6.60;;;2.30;99.90;;;;;;4911891;28;20305;-88
2023/01/21 00:41:16;;;;;;;17.77;7.63;;;2.30;99.90;;;;;;4920603;28;20054;-88
2023/01/21 00:43:42;;;;;;;16.83;7.85;;;2.30;99.90;;;;;;4908521;28;20038;-88
2023/01/21 00:46:09;;;;;;;15.35;6.93;;;2.30;99.90;;;;;;4932707;28;20023;-89
2023/01/21 00:48:36;;;;;;;15.90;6.40;;;2.30;99.90;;;;;;4897653;28;20356;-88
2023/01/21 00:51:02;;;;;;;16.10;7.03;;;2.30;99.90;;;;;;4911022;28;20201;-88
2023/01/21 00:53:31;;;;;;;15.70;6.80;;;2.30;99.90;;;;;;4948696;28;20601;-88
2023/01/21 00:56:05;;;;;;;15.77;7.53;;;2.40;99.90;;;;;;4905528;28;20975;-88
2023/01/21 00:58:32;;;;;;;17.00;6.97;;;2.30;99.90;;;;;;4925111;28;20664;-88
2023/01/21 01:01:11;;;;;;;15.55;6.60;;;2.30;99.90;;;;;;4919738;28;20323;-88
2023/01/21 01:03:38;;;;;;;16.27;6.87;;;2.30;99.90;;;;;;4895774;28;20498;-88
2023/01/21 01:06:15;;;;;;;18.52;8.07;;;2.30;99.90;;;;;;4929506;28;20692;-88
2023/01/21 01:08:43;;;;;;;18.85;7.65;;;2.30;99.90;;;;;;4929695;28;20061;-88
2023/01/21 01:11:10;;;;;;;16.50;7.18;;;2.30;99.90;;;;;;4905309;28;20027;-88
2023/01/21 01:13:44;;;;;;;14.95;7.20;;;2.30;99.90;;;;;;4925574;28;20117;-88
2023/01/21 01:16:16;;;;;;;18.87;7.60;;;2.30;99.90;;;;;;4916588;28;20542;-87
2023/01/21 01:18:41;;;;;;;18.98;8.30;;;2.30;99.90;;;;;;4895768;28;20030;-88
2023/01/21 01:21:11;;;;;;;18.10;6.85;;;2.30;99.90;;;;;;4924560;28;20114;-87
2023/01/21 01:23:37;;;;;;;19.70;8.10;;;2.30;99.90;;;;;;4945612;28;20035;-88
2023/01/21 01:26:05;;;;;;;19.17;8.23;;;2.20;99.90;;;;;;4947728;28;20066;-88
2023/01/21 01:28:32;;;;;;;18.25;8.02;;;2.20;99.90;;;;;;4914404;28;20054;-88
2023/01/21 01:30:58;;;;;;;19.30;7.90;;;2.20;99.90;;;;;;4920307;28;20030;-87
2023/01/21 01:33:25;;;;;;;20.02;8.30;;;2.20;99.90;;;;;;4917429;28;20030;-87
2023/01/21 01:35:50;;;;;;;17.08;7.63;;;2.20;99.90;;;;;;4885711;28;20061;-87
2023/01/21 01:38:21;;;;;;;18.47;8.10;;;2.20;99.90;;;;;;4913486;28;20035;-87
2023/01/21 01:40:48;;;;;;;17.75;7.50;;;2.20;99.90;;;;;;4905132;28;20030;-87
2023/01/21 01:43:18;;;;;;;20.80;8.02;;;2.20;99.90;;;;;;4896114;28;20054;-88
2023/01/21 01:45:44;;;;;;;19.55;7.80;;;2.10;99.90;;;;;;4923710;28;20022;-87
2023/01/21 01:48:14;;;;;;;20.33;7.83;;;2.20;99.90;;;;;;4911283;28;20574;-87
2023/01/21 01:50:40;;;;;;;18.10;7.82;;;2.10;99.90;;;;;;4916940;28;20027;-88
2023/01/21 01:53:07;;;;;;;18.58;8.40;;;2.10;99.90;;;;;;4943158;28;20744;-87
2023/01/21 01:55:35;;;;;;;20.83;7.67;;;2.10;99.90;;;;;;4927089;28;20352;-88
2023/01/21 01:58:05;;;;;;;17.23;7.38;;;2.10;99.90;;;;;;4929552;28;20398;-87
2023/01/21 02:00:30;;;;;;;19.48;7.80;;;2.10;99.90;;;;;;4949573;28;20524;-87
2023/01/21 02:05:42;;;;;;;19.80;7.90;;;2.00;99.90;;;;;;4912331;28;20391;-88
2023/01/21 02:08:10;;;;;;;17.45;7.68;;;2.00;99.90;;;;;;4922107;28;20350;-88
2023/01/21 02:10:36;;;;;;;20.48;7.88;;;2.00;99.90;;;;;;4912726;28;20490;-88
2023/01/21 02:13:03;;;;;;;19.20;7.97;;;2.00;99.90;;;;;;4934126;28;20034;-88
2023/01/21 02:15:39;;;;;;;18.73;8.18;;;2.00;99.90;;;;;;4921714;28;20755;-88
2023/01/21 02:18:17;;;;;;;19.58;7.35;;;2.00;99.90;;;;;;4945539;28;20031;-88
2023/01/21 02:20:52;;;;;;;19.33;7.30;;;1.90;99.90;;;;;;4903527;28;20058;-88
2023/01/21 02:23:47;;;;;;;18.42;8.05;;;1.90;99.90;;;;;;4903100;28;20220;-88
2023/01/21 02:26:34;;;;;;;18.83;6.97;;;1.90;99.90;;;;;;4927107;28;20118;-88
2023/01/21 02:29:03;;;;;;;17.17;7.22;;;1.90;99.90;;;;;;4937755;28;20035;-88
2023/01/21 02:31:40;;;;;;;18.77;7.18;;;1.90;99.90;;;;;;4920614;28;20122;-88
2023/01/21 02:34:40;;;;;;;19.67;7.35;;;1.90;99.90;;;;;;4930899;28;20398;-88
2023/01/21 02:37:09;;;;;;;17.73;6.68;;;1.90;99.90;;;;;;4926795;28;20868;-87
2023/01/21 02:40:02;;;;;;;18.40;7.17;;;1.90;99.90;;;;;;4930162;28;20027;-88
2023/01/21 02:42:43;;;;;;;17.42;6.80;;;1.80;99.90;;;;;;4916749;28;20070;-87
2023/01/21 02:45:27;;;;;;;19.08;6.95;;;1.80;99.90;;;;;;4936933;28;20069;-88
2023/01/21 02:48:05;;;;;;;18.45;6.82;;;1.80;99.90;;;;;;4916407;28;20137;-88
2023/01/21 02:50:50;;;;;;;16.77;7.35;;;1.80;99.90;;;;;;4920997;28;20023;-88
2023/01/21 02:53:31;;;;;;;18.40;7.30;;;1.70;99.90;;;;;;4945568;28;20220;-88
2023/01/21 02:56:01;;;;;;;17.63;7.07;;;1.70;99.90;;;;;;4903546;28;20039;-88
2023/01/21 02:58:30;;;;;;;18.73;6.55;;;1.70;99.90;;;;;;4930492;28;20035;-88
2023/01/21 03:01:25;;;;;;;18.75;6.85;;;1.70;99.90;;;;;;4914875;28;20042;-88
2023/01/21 03:04:03;;;;;;;15.25;6.13;;;1.60;99.90;;;;;;4923410;28;20042;-88
2023/01/21 03:07:15;;;;;;;17.10;6.27;;;1.60;99.90;;;;;;4931251;28;20032;-87
2023/01/21 03:09:40;;;;;;;20.40;7.65;;;1.60;99.90;;;;;;4900285;28;20126;-88
2023/01/21 03:12:33;;;;;;;19.70;7.55;;;1.60;99.90;;;;;;4915465;28;20454;-87
2023/01/21 03:18:06;;;;;;;18.50;6.87;;;1.50;99.90;;;;;;4926744;28;20041;-88
2023/01/21 03:20:46;;;;;;;19.80;6.57;;;1.60;99.90;;;;;;4941597;28;20023;-88
2023/01/21 03:23:20;;;;;;;19.63;7.38;;;1.50;99.90;;;;;;4890246;28;20098;-87
2023/01/21 03:25:48;;;;;;;20.42;7.72;;;1.50;99.90;;;;;;4926728;28;20110;-88
2023/01/21 03:28:20;;;;;;;18.77;7.32;;;1.50;99.90;;;;;;4952684;28;20498;-88
2023/01/21 03:30:49;;;;;;;17.33;6.70;;;1.50;99.90;;;;;;4929890;28;20467;-87
2023/01/21 03:33:17;;;;;;;18.70;7.57;;;1.50;99.90;;;;;;4929527;28;20762;-88
2023/01/21 03:35:46;;;;;;;19.60;7.35;;;1.50;99.90;;;;;;4935903;28;20038;-87
2023/01/21 03:38:23;;;;;;;19.10;6.95;;;1.50;99.90;;;;;;4890225;28;20417;-88
2023/01/21 03:41:04;;;;;;;21.33;8.02;;;1.50;99.90;;;;;;4943665;28;20081;-88
2023/01/21 03:43:30;;;;;;;17.67;6.50;;;1.50;99.90;;;;;;4923210;28;20042;-87
2023/01/21 03:46:08;;;;;;;17.92;6.82;;;1.50;99.90;;;;;;4910717;28;20042;-87
2023/01/21 03:48:47;;;;;;;19.02;7.72;;;1.50;99.90;;;;;;4933293;28;20700;-87
2023/01/21 03:51:30;;;;;;;17.23;6.68;;;1.50;99.90;;;;;;4941847;28;20043;-87
2023/01/21 03:53:57;;;;;;;17.95;7.18;;;1.40;99.90;;;;;;4904626;28;20033;-87
2023/01/21 03:56:24;;;;;;;19.07;7.10;;;1.40;99.90;;;;;;4908707;28;20022;-87
2023/01/21 03:58:50;;;;;;;20.67;7.93;;;1.40;99.90;;;;;;4917486;28;20038;-87
2023/01/21 04:01:16;;;;;;;20.67;7.40;;;1.40;99.90;;;;;;4930664;28;20062;-87
2023/01/21 04:03:42;;;;;;;22.63;7.73;;;1.40;99.90;;;;;;4943336;28;20473;-87
2023/01/21 04:06:19;;;;;;;21.20;8.18;;;1.40;99.90;;;;;;4931544;28;20280;-87
2023/01/21 04:08:45;;;;;;;21.58;7.97;;;1.40;99.90;;;;;;4914899;28;20026;-87
2023/01/21 04:11:11;;;;;;;22.47;8.30;;;1.40;99.90;;;;;;4916514;28;20424;-87
2023/01/21 04:13:36;;;;;;;22.63;8.47;;;1.40;99.90;;;;;;4921966;28;21071;-87
2023/01/21 04:16:03;;;;;;;20.92;8.27;;;1.40;99.90;;;;;;4930036;28;20042;-87
2023/01/21 04:18:29;;;;;;;21.17;7.75;;;1.40;99.90;;;;;;4938996;28;20407;-87
2023/01/21 04:20:55;;;;;;;18.43;8.03;;;1.40;99.90;;;;;;4907689;28;20035;-88
2023/01/21 04:23:21;;;;;;;20.35;7.93;;;1.40;99.90;;;;;;4932700;28;20027;-87
2023/01/21 04:25:50;;;;;;;23.10;7.27;;;1.40;99.90;;;;;;4923186;28;20035;-87
2023/01/21 04:28:17;;;;;;;19.40;8.02;;;1.40;99.90;;;;;;4938513;28;20095;-87
2023/01/21 04:30:43;;;;;;;20.92;8.55;;;1.40;99.90;;;;;;4941755;28;20090;-87
2023/01/21 04:33:09;;;;;;;21.03;7.33;;;1.40;99.90;;;;;;4915569;28;20148;-87
2023/01/21 04:35:35;;;;;;;21.77;8.40;;;1.40;99.90;;;;;;4927517;28;20446;-87
2023/01/21 04:38:01;;;;;;;19.63;7.75;;;1.40;99.90;;;;;;4936735;28;20605;-87
2023/01/21 04:40:27;;;;;;;18.95;8.00;;;1.40;99.90;;;;;;4914333;28;20038;-87
2023/01/21 04:42:52;;;;;;;22.83;8.37;;;1.40;99.90;;;;;;4919416;28;20058;-87
2023/01/21 04:45:18;;;;;;;21.33;8.20;;;1.40;99.90;;;;;;4933913;28;20030;-87
2023/01/21 04:47:46;;;;;;;21.00;7.88;;;1.40;99.90;;;;;;4912344;29;20019;-86
2023/01/21 04:50:13;;;;;;;22.03;8.70;;;1.30;99.90;;;;;;4911821;28;21421;-87
2023/01/21 04:52:39;;;;;;;20.65;7.45;;;1.40;99.90;;;;;;4945707;28;20050;-87
2023/01/21 04:55:06;;;;;;;21.27;7.72;;;1.40;99.90;;;;;;4903400;28;20035;-87
2023/01/21 04:57:32;;;;;;;24.23;8.70;;;1.40;99.90;;;;;;4922160;28;20030;-87
2023/01/21 04:59:57;;;;;;;26.03;9.27;;;1.40;99.90;;;;;;4933242;28;20237;-87
2023/01/21 05:02:23;;;;;;;21.88;8.60;;;1.40;99.90;;;;;;4930992;28;20114;-87
2023/01/21 05:04:49;;;;;;;22.40;8.73;;;1.40;99.90;;;;;;4911891;28;20114;-87
2023/01/21 05:07:14;;;;;;;22.48;8.15;;;1.40;99.90;;;;;;4935859;28;20023;-87
2023/01/21 05:09:40;;;;;;;22.30;8.80;;;1.40;99.90;;;;;;4906025;28;20027;-87
2023/01/21 05:12:07;;;;;;;22.13;8.88;;;1.40;99.90;;;;;;4917723;28;20719;-87
2023/01/21 05:14:33;;;;;;;23.70;9.07;;;1.40;99.90;;;;;;4943151;28;20300;-87
2023/01/21 05:16:59;;;;;;;19.83;8.20;;;1.40;99.90;;;;;;4911718;28;20027;-87
2023/01/21 05:19:25;;;;;;;22.73;8.50;;;1.40;99.90;;;;;;4919078;29;21573;-87
2023/01/21 05:21:51;;;;;;;20.88;7.95;;;1.40;99.90;;;;;;4920911;28;20042;-87
2023/01/21 05:24:16;;;;;;;22.77;8.80;;;1.40;99.90;;;;;;4922156;28;20033;-87
2023/01/21 05:26:42;;;;;;;20.83;8.65;;;1.40;99.90;;;;;;4890861;29;20475;-87
2023/01/21 05:29:08;;;;;;;21.13;8.47;;;1.40;99.90;;;;;;4907159;28;20058;-87
2023/01/21 05:31:34;;;;;;;23.38;8.75;;;1.30;99.90;;;;;;4915262;29;20050;-87
2023/01/21 05:33:59;;;;;;;22.15;8.63;;;1.30;99.90;;;;;;4913949;28;20029;-87
2023/01/21 05:36:25;;;;;;;22.10;8.67;;;1.30;99.90;;;;;;4952308;28;20734;-87
2023/01/21 05:38:51;;;;;;;19.73;7.90;;;1.30;99.90;;;;;;4908549;28;20508;-87
2023/01/21 05:41:17;;;;;;;22.35;9.07;;;1.30;99.90;;;;;;4878316;28;20059;-87
2023/01/21 05:43:43;;;;;;;23.93;9.00;;;1.30;99.90;;;;;;4918935;28;20055;-87
2023/01/21 05:46:08;;;;;;;21.88;8.70;;;1.30;99.90;;;;;;4932529;28;20102;-87
2023/01/21 05:48:34;;;;;;;24.20;7.83;;;1.30;99.90;;;;;;4944176;28;20245;-87
2023/01/21 05:51:00;;;;;;;21.80;8.53;;;1.30;99.90;;;;;;4916139;29;20110;-87
2023/01/21 05:53:26;;;;;;;24.23;9.10;;;1.30;99.90;;;;;;4921068;28;20797;-88
2023/01/21 05:55:55;;;;;;;19.67;7.85;;;1.30;99.90;;;;;;4909446;28;20032;-87
2023/01/21 05:58:23;;;;;;;21.17;8.35;;;1.30;99.90;;;;;;4880933;28;20086;-87
2023/01/21 06:00:48;;;;;;;23.73;8.97;;;1.30;99.90;;;;;;4912732;28;20034;-87
2023/01/21 06:03:16;;;;;;;21.15;8.52;;;1.30;99.90;;;;;;4884583;28;20046;-87
2023/01/21 06:05:42;;;;;;;20.05;7.53;;;1.20;99.90;;;;;;4907167;28;20027;-87
2023/01/21 06:08:09;;;;;;;21.65;7.47;;;1.20;99.90;;;;;;4907978;28;20034;-87
2023/01/21 06:10:35;;;;;;;21.50;8.25;;;1.20;99.90;;;;;;4912497;28;20113;-87
2023/01/21 06:13:01;;;;;;;24.87;9.20;;;1.20;99.90;;;;;;4898893;28;20035;-87
2023/01/21 06:15:27;;;;;;;20.33;8.00;;;1.20;99.90;;;;;;4918668;28;20066;-87
2023/01/21 06:17:54;;;;;;;24.67;8.90;;;1.20;99.90;;;;;;4927621;28;20373;-87
2023/01/21 06:20:20;;;;;;;24.90;8.65;;;1.20;99.90;;;;;;4925032;28;20593;-87
2023/01/21 06:22:46;;;;;;;21.83;9.13;;;1.20;99.90;;;;;;4914453;28;20467;-87
2023/01/21 06:25:12;;;;;;;22.30;8.35;;;1.20;99.90;;;;;;4915978;28;20019;-87
2023/01/21 06:27:38;;;;;;;19.42;7.18;;;1.20;99.90;;;;;;4924692;28;20093;-87
2023/01/21 06:30:08;;;;;;;21.47;8.03;;;1.20;99.90;;;;;;4894185;28;20034;-87
2023/01/21 06:32:35;;;;;;;20.48;7.07;;;1.20;99.90;;;;;;4946896;28;20510;-87
2023/01/21 06:35:01;;;;;;;18.98;7.72;;;1.20;99.90;;;;;;4908981;29;20093;-87
2023/01/21 06:37:26;;;;;;;17.27;7.03;;;1.20;99.90;;;;;;4916434;28;20031;-86
2023/01/21 06:39:53;;;;;;;22.70;7.70;;;1.20;99.90;;;;;;4888211;28;20238;-87
2023/01/21 06:42:19;;;;;;;20.20;7.55;;;1.20;99.90;;;;;;4924314;28;20058;-87
2023/01/21 06:44:45;;;;;;;18.90;7.35;;;1.10;99.90;;;;;;4892400;28;20122;-87
2023/01/21 06:47:11;;;;;;;18.92;6.78;;;1.10;99.90;;;;;;4919158;28;20066;-87
2023/01/21 06:49:37;;;;;;;18.60;6.50;;;1.10;99.90;;;;;;4932760;28;20171;-87
2023/01/21 06:52:04;;;;;;;20.63;7.80;;;1.20;99.90;;;;;;4927056;28;20110;-86
2023/01/21 06:54:30;;;;;;;20.85;7.10;;;1.10;99.90;;;;;;4914866;28;20034;-87
2023/01/21 06:56:55;;;;;;;18.83;6.85;;;1.10;99.90;;;;;;4914067;28;20226;-87
2023/01/21 06:59:21;;;;;;;18.10;6.70;;;1.10;99.90;;;;;;4916226;28;20046;-86
2023/01/21 07:01:47;;;;;;;21.33;7.57;;;1.10;99.90;;;;;;4891038;28;20023;-87
2023/01/21 07:04:13;;;;;;;19.13;6.63;;;1.10;99.90;;;;;;4929497;28;20451;-86
2023/01/21 07:06:39;;;;;;;19.92;7.18;;;1.00;99.90;;;;;;4906235;28;20042;-86
2023/01/21 07:09:06;;;;;;;21.75;7.95;;;1.10;99.90;;;;;;4894620;29;20471;-86
2023/01/21 07:11:32;;;;;;;16.88;7.18;;;1.00;99.90;;;;;;4905286;28;20027;-87
2023/01/21 07:13:58;;;;;;;17.77;7.07;;;1.00;99.90;;;;;;4938210;28;20023;-87
2023/01/21 07:16:24;;;;;;;17.83;6.80;;;1.00;99.90;;;;;;4907034;28;20062;-86
2023/01/21 07:18:50;;;;;;;21.17;7.93;;;1.00;99.90;;;;;;4901587;28;20031;-87
2023/01/21 07:21:17;;;;;;;19.53;7.30;;;1.00;99.90;;;;;;4915820;29;20055;-87
2023/01/21 07:23:42;;;;;;;17.52;6.45;;;1.00;99.90;;;;;;4893568;28;20054;-87
2023/01/21 07:26:08;;;;;;;16.63;6.30;;;1.00;99.90;;;;;;4909269;28;20027;-87
2023/01/21 07:28:34;;;;;;;17.17;6.37;;;1.00;99.90;;;;;;4931210;28;20089;-86
2023/01/21 07:31:01;;;;;;;18.95;7.15;;;1.00;99.90;;;;;;4928500;28;20122;-87
2023/01/21 07:33:27;;;;;;;18.85;6.82;;;0.90;99.90;;;;;;4893962;28;20077;-87
2023/01/21 07:35:54;;;;;;;17.48;6.57;;;0.90;99.90;;;;;;4917402;29;20034;-87
2023/01/21 07:38:20;;;;;;;15.93;5.87;;;0.90;99.90;;;;;;4914407;28;20046;-87
2023/01/21 07:40:49;;;;;;;17.58;6.97;;;0.90;99.90;;;;;;4891738;28;20058;-87
2023/01/21 07:43:16;;;;;;;18.45;6.70;;;1.00;99.90;;;;;;4936247;28;20114;-86
2023/01/21 07:45:42;;;;;;;16.58;6.10;;;0.90;99.90;;;;;;4911656;28;20387;-87
2023/01/21 07:48:08;;;;;;;20.20;6.73;;;1.00;99.90;;;;;;4912209;28;20035;-87
2023/01/21 07:50:34;;;;;;;18.97;6.67;;;1.00;99.90;;;;;;4948685;28;20278;-86
2023/01/21 07:53:00;;;;;;;20.15;6.88;;;1.00;99.90;;;;;;4916206;28;22179;-87
2023/01/21 07:55:28;;;;;;;19.80;7.40;;;1.00;99.90;;;;;;4922023;28;20050;-87
2023/01/21 07:57:57;;;;;;;19.65;6.97;;;1.00;99.90;;;;;;4908550;28;20225;-87
2023/01/21 08:00:25;;;;;;;21.30;7.50;;;1.00;99.90;;;;;;4926272;28;20161;-87
2023/01/21 08:02:55;;;;;;;17.97;7.07;;;1.00;99.90;;;;;;4889726;28;21761;-87
2023/01/21 08:05:22;;;;;;;18.40;6.50;;;1.00;99.90;;;;;;4952062;28;20046;-87
2023/01/21 08:07:48;;;;;;;17.23;6.75;;;1.10;99.90;;;;;;4940781;28;20315;-87
2023/01/21 08:10:15;;;;;;;18.60;7.03;;;1.10;99.90;;;;;;4949863;28;20561;-86
2023/01/21 08:12:41;;;;;;;19.77;7.17;;;1.20;99.90;;;;;;4920686;28;20387;-87
2023/01/21 08:15:08;;;;;;;19.83;7.20;;;1.20;99.90;;;;;;4930127;28;20015;-87
2023/01/21 08:17:37;;;;;;;23.40;7.80;;;1.30;99.90;;;;;;4917546;28;20659;-86
2023/01/21 08:20:04;;;;;;;20.52;7.45;;;1.30;99.90;;;;;;4893073;28;20462;-87
2023/01/21 08:22:30;;;;;;;19.08;6.82;;;1.40;99.90;;;;;;4945932;28;20517;-86
2023/01/21 08:24:55;;;;;;;19.70;7.47;;;1.40;99.90;;;;;;4908885;28;20111;-87
2023/01/21 08:27:21;;;;;;;20.57;7.20;;;1.40;99.90;;;;;;4909243;28;20057;-87
2023/01/21 08:29:47;;;;;;;18.17;6.80;;;1.50;99.90;;;;;;4914497;28;20122;-87
2023/01/21 08:32:13;;;;;;;21.70;8.43;;;1.50;99.90;;;;;;4906393;28;20934;-87
2023/01/21 08:34:39;;;;;;;24.02;8.82;;;1.60;99.90;;;;;;4895648;28;20031;-86
2023/01/21 08:37:05;;;;;;;21.70;8.90;;;1.60;99.90;;;;;;4934722;28;20046;-87
2023/01/21 08:39:30;;;;;;;22.33;7.90;;;1.70;99.90;;;;;;4914274;28;20300;-87
2023/01/21 08:41:56;;;;;;;24.80;9.33;;;1.70;99.90;;;;;;4917538;28;20059;-87
2023/01/21 08:44:22;;;;;;;21.53;8.90;;;1.80;99.90;;;;;;4905654;28;20612;-86
2023/01/21 08:46:48;;;;;;;24.73;8.68;;;1.90;99.90;;;;;;4909731;28;20022;-87
2023/01/21 08:49:14;;;;;;;24.33;8.90;;;1.90;99.90;;;;;;4914768;28;20276;-86
2023/01/21 08:51:40;;;;;;;22.80;8.90;;;2.00;99.90;;;;;;4907201;28;21436;-86
2023/01/21 08:54:06;;;;;;;23.80;8.73;;;2.10;99.90;;;;;;4940711;28;20027;-87
2023/01/21 08:56:32;;;;;;;22.58;8.05;;;2.20;99.90;;;;;;4927727;28;20027;-86
2023/01/21 08:58:59;;;;;;;22.65;9.07;;;2.30;99.90;;;;;;4916745;28;20129;-86
2023/01/21 09:01:25;;;;;;;23.75;9.10;;;2.30;99.90;;;;;;4907850;28;20736;-86
2023/01/21 09:03:55;;;;;;;22.80;8.70;;;2.50;99.90;;;;;;4920408;28;20117;-87
2023/01/21 09:06:22;;;;;;;23.87;9.23;;;2.50;99.90;;;;;;4905643;28;20969;-87
2023/01/21 09:08:48;;;;;;;23.77;8.55;;;2.70;99.90;;;;;;4935273;28;20085;-86
2023/01/21 09:11:15;;;;;;;19.77;8.27;;;2.70;99.90;;;;;;4909644;28;20023;-87
2023/01/21 09:13:43;;;;;;;21.67;8.10;;;2.80;99.90;;;;;;4925457;28;20550;-86
2023/01/21 09:16:17;;;;;;;26.02;9.38;;;2.80;99.90;;;;;;4914657;28;20023;-87
2023/01/21 09:18:43;;;;;;;22.57;9.20;;;2.90;99.90;;;;;;4911171;28;20491;-87
2023/01/21 09:21:09;;;;;;;22.15;8.63;;;2.90;99.90;;;;;;4892986;28;20085;-87
2023/01/21 09:23:36;;;;;;;20.48;7.85;;;2.90;99.90;;;;;;4937618;28;20030;-87
2023/01/21 09:26:20;;;;;;;23.95;8.75;;;3.00;99.90;;;;;;4936200;28;20058;-87
2023/01/21 09:28:56;;;;;;;21.02;8.38;;;3.00;99.90;;;;;;4938115;28;20039;-87
2023/01/21 09:31:24;;;;;;;22.77;8.30;;;3.10;99.90;;;;;;4925389;28;20474;-87
2023/01/21 09:33:53;;;;;;;21.42;8.50;;;3.10;99.90;;;;;;4936878;28;20388;-87
2023/01/21 09:36:21;;;;;;;21.27;8.55;;;3.20;99.90;;;;;;4931102;28;20050;-86
2023/01/21 09:38:48;;;;;;;19.83;8.13;;;3.30;99.90;;;;;;4897135;28;20026;-87
2023/01/21 09:41:35;;;;;;;21.98;8.25;;;3.40;99.90;;;;;;4932480;28;20205;-87
2023/01/21 09:44:31;;;;;;;19.17;8.20;;;3.60;99.90;;;;;;4904268;28;20631;-87
2023/01/21 09:47:34;;;;;;;19.85;7.95;;;3.80;99.90;;;;;;4949087;28;20039;-87
2023/01/21 09:50:13;;;;;;;19.63;8.20;;;4.10;99.90;;;;;;4912815;28;20106;-87
2023/01/21 09:52:50;;;;;;;20.00;8.48;;;4.50;99.90;;;;;;4900148;28;20283;-87
2023/01/21 09:55:16;;;;;;;17.25;7.82;;;4.80;99.90;;;;;;4916506;29;20023;-87
2023/01/21 09:58:25;;;;;;;21.03;8.23;;;5.10;99.90;;;;;;4912079;28;20693;-87
2023/01/21 10:00:59;;;;;;;19.55;7.97;;;5.50;99.90;;;;;;4899107;29;20043;-87
2023/01/21 10:03:34;;;;;;;17.75;8.07;;;5.90;99.90;;;;;;4932419;28;20046;-87
2023/01/21 10:06:22;;;;;;;17.37;8.47;;;6.30;99.90;;;;;;4900846;28;20289;-87
2023/01/21 10:09:19;;;;;;;17.90;8.48;;;6.70;99.90;;;;;;4885324;28;20035;-87
2023/01/21 10:12:32;;;;;;;17.23;8.48;;;7.10;99.90;;;;;;4915185;28;20596;-87
2023/01/21 10:15:12;;;;;;;15.40;7.68;;;7.50;99.90;;;;;;4880798;28;20486;-87
2023/01/21 10:17:59;;;;;;;16.52;8.23;;;7.90;99.90;;;;;;4918446;28;20402;-87
2023/01/21 10:20:36;;;;;;;16.47;8.27;;;8.20;99.90;;;;;;4905794;28;20031;-87
2023/01/21 10:23:15;;;;;;;17.83;8.20;;;8.60;99.90;;;;;;4909307;28;20315;-85
2023/01/21 10:25:43;;;;;;;16.73;8.27;;;8.90;99.90;;;;;;4881536;28;20873;-84
2023/01/21 10:28:19;;;;;;;18.08;8.90;;;9.20;99.90;;;;;;4939532;28;20228;-85
2023/01/21 10:30:49;;;;;;;18.45;9.15;;;9.50;99.90;;;;;;4909250;28;20020;-85
2023/01/21 10:33:27;;;;;;;19.87;9.50;;;9.70;99.90;;;;;;4929660;28;20053;-85
2023/01/21 10:36:12;;;;;;;19.70;10.57;;;10.00;99.90;;;;;;4920098;28;20311;-85
2023/01/21 10:39:00;;;;;;;18.80;9.93;;;10.20;99.90;;;;;;4922680;28;20078;-85
2023/01/21 10:41:43;;;;;;;16.88;9.20;;;10.40;99.90;;;;;;4904961;28;20047;-85
2023/01/21 10:44:16;;;;;;;18.13;9.75;;;10.60;99.90;;;;;;4931727;28;20600;-86
2023/01/21 10:46:54;;;;;;;17.97;9.57;;;10.90;99.90;;;;;;4906794;28;20403;-85
2023/01/21 10:49:36;;;;;;;19.25;9.75;;;11.10;99.90;;;;;;4917719;28;20394;-85
2023/01/21 10:52:08;;;;;;;17.25;9.75;;;11.30;99.90;;;;;;4926305;28;20031;-86
2023/01/21 10:54:33;;;;;;;20.42;10.43;;;11.50;99.90;;;;;;4936745;28;20024;-86
2023/01/21 10:57:18;;;;;;;20.43;10.57;;;11.70;99.90;;;;;;4901967;28;20038;-86
2023/01/21 10:59:45;;;;;;;17.75;10.13;;;11.90;99.90;;;;;;4922262;28;20090;-86
2023/01/21 11:02:28;;;;;;;20.20;10.43;;;12.10;99.90;;;;;;4919496;28;20420;-85
2023/01/21 11:04:57;;;;;;;18.30;9.70;;;12.30;99.90;;;;;;4930691;28;20035;-86
2023/01/21 11:07:24;;;;;;;23.63;11.47;;;12.40;99.90;;;;;;4912976;28;20133;-86
2023/01/21 11:09:51;;;;;;;20.85;11.20;;;12.60;99.90;;;;;;4912426;28;20310;-85
2023/01/21 11:12:19;;;;;;;22.25;11.38;;;12.60;99.90;;;;;;4912678;28;20336;-85
2023/01/21 11:14:57;;;;;;;21.17;11.27;;;12.70;99.90;;;;;;4909606;28;20038;-85
2023/01/21 11:17:37;;;;;;;20.05;10.38;;;12.80;99.90;;;;;;4916619;28;20042;-85
2023/01/21 11:20:15;;;;;;;19.83;10.53;;;12.80;99.90;;;;;;4921147;28;20071;-84
2023/01/21 11:22:44;;;;;;;19.90;10.68;;;12.70;99.90;;;;;;4918130;28;20086;-87
2023/01/21 11:25:37;;;;;;;19.95;10.43;;;12.50;99.90;;;;;;4929394;28;20069;-87
2023/01/21 11:28:04;;;;;;;19.15;9.65;;;12.20;99.90;;;;;;4915506;28;20050;-87
2023/01/21 11:30:34;;;;;;;21.63;10.32;;;11.90;99.90;;;;;;4921785;28;20078;-87
2023/01/21 11:33:21;;;;;;;19.87;10.20;;;11.70;99.90;;;;;;4914077;28;20499;-87
2023/01/21 11:35:47;;;;;;;21.27;10.98;;;11.40;99.90;;;;;;4916161;28;20046;-87
2023/01/21 11:38:34;;;;;;;19.02;9.88;;;11.10;99.90;;;;;;4921323;28;20606;-87
2023/01/21 11:41:15;;;;;;;20.17;9.77;;;10.90;99.90;;;;;;4936198;28;20050;-87
2023/01/21 11:43:45;;;;;;;18.33;9.20;;;10.70;99.90;;;;;;4908387;28;20041;-87
2023/01/21 11:46:29;;;;;;;19.57;10.27;;;10.60;99.90;;;;;;4919930;28;20065;-87
2023/01/21 11:49:16;;;;;;;20.10;9.52;;;10.60;99.90;;;;;;4917316;28;20117;-87
2023/01/21 11:51:44;;;;;;;17.52;8.80;;;10.60;99.90;;;;;;4934187;28;20058;-87
2023/01/21 11:54:21;;;;;;;20.13;9.98;;;10.40;99.90;;;;;;4920969;28;20521;-88
2023/01/21 11:57:14;;;;;;;18.40;9.27;;;10.10;99.90;;;;;;4914015;28;20035;-87
2023/01/21 11:59:46;;;;;;;22.83;9.83;;;9.80;99.90;;;;;;4919809;28;20037;-87
2023/01/21 12:02:17;;;;;;;22.48;10.05;;;9.40;99.90;;;;;;4950180;28;20517;-88
2023/01/21 12:04:49;;;;;;;22.25;10.05;;;9.10;99.90;;;;;;4921552;28;20115;-88
2023/01/21 12:07:32;;;;;;;21.25;9.05;;;8.80;99.90;;;;;;4925459;28;20590;-88
2023/01/21 12:10:06;;;;;;;19.98;8.65;;;8.40;99.90;;;;;;4914712;28;20093;-88
2023/01/21 12:12:38;;;;;;;21.40;10.07;;;8.10;99.90;;;;;;4933807;28;20434;-88
2023/01/21 12:15:20;;;;;;;22.27;9.50;;;7.70;99.90;;;;;;4904440;28;20030;-88
2023/01/21 12:18:29;;;;;;;24.83;11.13;;;7.40;99.90;;;;;;4946627;28;21065;-88
2023/01/21 12:21:03;;;;;;;25.13;11.15;;;7.00;99.90;;;;;;4916322;28;20042;-88
2023/01/21 12:23:48;;;;;;;21.00;9.32;;;6.70;99.90;;;;;;4912444;28;20046;-88
2023/01/21 12:26:35;;;;;;;22.37;8.57;;;6.40;99.90;;;;;;4951341;28;20538;-88
2023/01/21 12:29:18;;;;;;;19.63;8.52;;;6.10;99.90;;;;;;4935053;28;20047;-88
2023/01/21 12:31:51;;;;;;;24.33;10.73;;;5.90;99.90;;;;;;4912360;28;20108;-88
2023/01/21 12:34:46;;;;;;;27.23;11.32;;;5.80;99.90;;;;;;4922782;28;20041;-88
2023/01/21 12:37:29;;;;;;;23.38;9.02;;;5.60;99.90;;;;;;4925459;28;20026;-88
2023/01/21 12:39:59;;;;;;;24.57;9.33;;;5.40;99.90;;;;;;4929948;28;20057;-87
2023/01/21 12:42:33;;;;;;;23.60;9.20;;;5.30;99.90;;;;;;4927604;28;20130;-88
2023/01/21 12:45:14;;;;;;;23.70;9.00;;;5.20;99.90;;;;;;4915573;28;20075;-88
2023/01/21 12:47:55;;;;;;;28.58;10.32;;;5.10;99.90;;;;;;4913424;28;20029;-89
2023/01/21 12:50:38;;;;;;;27.10;10.50;;;5.00;99.90;;;;;;4934281;28;20593;-88
2023/01/21 12:53:09;;;;;;;25.10;9.53;;;5.00;99.90;;;;;;4938802;28;20480;-88
2023/01/21 12:56:16;;;;;;;23.05;7.72;;;4.90;99.90;;;;;;4943061;28;20533;-88
2023/01/21 12:59:32;;;;;;;21.40;8.68;;;4.90;99.90;;;;;;4936097;28;20041;-88
2023/01/21 13:02:11;;;;;;;24.15;8.45;;;4.90;99.90;;;;;;4901766;28;20350;-88
2023/01/21 13:04:57;;;;;;;22.55;8.65;;;4.90;99.90;;;;;;4934872;28;20023;-88
2023/01/21 13:07:42;;;;;;;22.87;8.57;;;4.90;99.90;;;;;;4906161;28;20034;-88
2023/01/21 13:10:21;;;;;;;26.23;9.30;;;4.90;99.90;;;;;;4925437;28;20023;-88
2023/01/21 13:12:57;;;;;;;23.42;8.80;;;5.00;99.90;;;;;;4930895;28;20439;-87
2023/01/21 13:15:38;;;;;;;27.15;9.10;;;5.00;99.90;;;;;;4920033;28;20086;-89